sensor_id;sensor_type;location;lat;lon;timestamp;P1;durP1;ratioP1;P2;durP2;ratioP2
72439;SDS011;60446;50.752;4.352;2024-03-23T00:53:44;13.02;;;3.20;;
72439;SDS011;60446;50.752;4.352;2024-03-23T00:56:10;8.05;;;3.05;;
72439;SDS011;60446;50.752;4.352;2024-03-23T00:58:36;10.27;;;3.03;;
72439;SDS011;60446;50.752;4.352;2024-03-23T01:01:02;9.38;;;3.20;;
72439;SDS011;60446;50.752;4.352;2024-03-23T01:03:29;7.70;;;3.67;;
72439;SDS011;60446;50.752;4.352;2024-03-23T01:06:02;7.95;;;3.53;;
72439;SDS011;60446;50.752;4.352;2024-03-23T01:08:31;9.15;;;3.60;;
72439;SDS011;60446;50.752;4.352;2024-03-23T01:11:01;9.00;;;3.20;;
72439;SDS011;60446;50.752;4.352;2024-03-23T01:13:28;6.80;;;3.78;;
72439;SDS011;60446;50.752;4.352;2024-03-23T01:15:54;10.75;;;3.88;;
72439;SDS011;60446;50.752;4.352;2024-03-23T01:18:22;10.30;;;3.50;;
72439;SDS011;60446;50.752;4.352;2024-03-23T01:20:49;10.95;;;3.33;;
72439;SDS011;60446;50.752;4.352;2024-03-23T01:23:15;8.03;;;2.70;;
72439;SDS011;60446;50.752;4.352;2024-03-23T01:25:42;11.10;;;3.83;;
72439;SDS011;60446;50.752;4.352;2024-03-23T01:28:08;7.90;;;3.65;;
72439;SDS011;60446;50.752;4.352;2024-03-23T01:30:34;8.93;;;3.17;;
72439;SDS011;60446;50.752;4.352;2024-03-23T01:33:01;9.45;;;3.50;;
72439;SDS011;60446;50.752;4.352;2024-03-23T01:35:28;11.80;;;3.40;;
72439;SDS011;60446;50.752;4.352;2024-03-23T01:37:55;10.52;;;2.78;;
72439;SDS011;60446;50.752;4.352;2024-03-23T01:40:21;7.53;;;3.00;;
72439;SDS011;60446;50.752;4.352;2024-03-23T01:42:56;9.25;;;3.10;;
72439;SDS011;60446;50.752;4.352;2024-03-23T01:45:31;8.77;;;3.38;;
72439;SDS011;60446;50.752;4.352;2024-03-23T01:47:58;9.63;;;3.30;;
72439;SDS011;60446;50.752;4.352;2024-03-23T01:50:25;13.25;;;3.45;;
72439;SDS011;60446;50.752;4.352;2024-03-23T01:52:53;8.73;;;3.50;;
72439;SDS011;60446;50.752;4.352;2024-03-23T01:55:20;12.95;;;3.63;;
72439;SDS011;60446;50.752;4.352;2024-03-23T01:57:46;8.57;;;3.65;;
72439;SDS011;60446;50.752;4.352;2024-03-23T02:00:13;8.23;;;2.90;;
72439;SDS011;60446;50.752;4.352;2024-03-23T02:02:43;16.90;;;4.43;;
72439;SDS011;60446;50.752;4.352;2024-03-23T02:05:13;10.90;;;3.88;;
72439;SDS011;60446;50.752;4.352;2024-03-23T02:07:39;12.07;;;3.45;;
72439;SDS011;60446;50.752;4.352;2024-03-23T02:10:07;9.50;;;4.05;;
72439;SDS011;60446;50.752;4.352;2024-03-23T02:12:41;13.00;;;4.37;;
72439;SDS011;60446;50.752;4.352;2024-03-23T02:15:08;11.30;;;3.80;;
72439;SDS011;60446;50.752;4.352;2024-03-23T02:17:34;10.98;;;3.75;;
72439;SDS011;60446;50.752;4.352;2024-03-23T02:20:02;10.75;;;4.28;;
72439;SDS011;60446;50.752;4.352;2024-03-23T02:22:38;11.20;;;4.32;;
72439;SDS011;60446;50.752;4.352;2024-03-23T02:25:05;16.37;;;4.27;;
72439;SDS011;60446;50.752;4.352;2024-03-23T02:27:32;15.02;;;5.43;;
72439;SDS011;60446;50.752;4.352;2024-03-23T02:30:00;13.95;;;5.50;;
72439;SDS011;60446;50.752;4.352;2024-03-23T02:32:26;20.05;;;5.63;;
72439;SDS011;60446;50.752;4.352;2024-03-23T02:34:52;16.65;;;6.43;;
72439;SDS011;60446;50.752;4.352;2024-03-23T02:37:18;11.17;;;5.00;;
72439;SDS011;60446;50.752;4.352;2024-03-23T02:39:44;12.35;;;5.25;;
72439;SDS011;60446;50.752;4.352;2024-03-23T02:42:10;21.48;;;6.63;;
72439;SDS011;60446;50.752;4.352;2024-03-23T02:44:37;13.80;;;5.55;;
72439;SDS011;60446;50.752;4.352;2024-03-23T02:47:03;15.68;;;6.13;;
72439;SDS011;60446;50.752;4.352;2024-03-23T02:49:30;19.67;;;6.50;;
72439;SDS011;60446;50.752;4.352;2024-03-23T02:51:56;24.92;;;7.07;;
72439;SDS011;60446;50.752;4.352;2024-03-23T02:54:22;20.38;;;6.78;;
72439;SDS011;60446;50.752;4.352;2024-03-23T02:56:48;21.08;;;6.45;;
72439;SDS011;60446;50.752;4.352;2024-03-23T02:59:14;18.63;;;7.03;;
72439;SDS011;60446;50.752;4.352;2024-03-23T03:01:41;19.10;;;7.23;;
72439;SDS011;60446;50.752;4.352;2024-03-23T03:04:07;22.85;;;7.57;;
72439;SDS011;60446;50.752;4.352;2024-03-23T03:06:33;25.17;;;7.72;;
72439;SDS011;60446;50.752;4.352;2024-03-23T03:08:59;14.63;;;6.63;;
72439;SDS011;60446;50.752;4.352;2024-03-23T03:11:25;19.48;;;8.43;;
72439;SDS011;60446;50.752;4.352;2024-03-23T03:13:51;17.63;;;7.03;;
72439;SDS011;60446;50.752;4.352;2024-03-23T03:16:18;17.55;;;7.95;;
72439;SDS011;60446;50.752;4.352;2024-03-23T03:18:44;18.52;;;7.63;;
72439;SDS011;60446;50.752;4.352;2024-03-23T03:21:12;19.55;;;8.05;;
72439;SDS011;60446;50.752;4.352;2024-03-23T03:23:38;26.42;;;7.90;;
72439;SDS011;60446;50.752;4.352;2024-03-23T03:26:05;14.80;;;7.10;;
72439;SDS011;60446;50.752;4.352;2024-03-23T03:28:32;18.95;;;7.07;;
72439;SDS011;60446;50.752;4.352;2024-03-23T03:30:59;18.80;;;7.97;;
72439;SDS011;60446;50.752;4.352;2024-03-23T03:33:26;16.02;;;7.30;;
72439;SDS011;60446;50.752;4.352;2024-03-23T03:35:54;17.27;;;8.25;;
72439;SDS011;60446;50.752;4.352;2024-03-23T03:38:20;18.87;;;8.37;;
72439;SDS011;60446;50.752;4.352;2024-03-23T03:40:47;22.88;;;7.60;;
72439;SDS011;60446;50.752;4.352;2024-03-23T03:43:13;17.42;;;7.60;;
72439;SDS011;60446;50.752;4.352;2024-03-23T03:45:39;22.27;;;7.43;;
72439;SDS011;60446;50.752;4.352;2024-03-23T03:48:06;16.23;;;6.85;;
72439;SDS011;60446;50.752;4.352;2024-03-23T03:50:32;21.13;;;8.00;;
72439;SDS011;60446;50.752;4.352;2024-03-23T03:52:58;18.33;;;7.57;;
72439;SDS011;60446;50.752;4.352;2024-03-23T03:55:24;18.60;;;8.23;;
72439;SDS011;60446;50.752;4.352;2024-03-23T03:57:50;17.33;;;7.45;;
72439;SDS011;60446;50.752;4.352;2024-03-23T04:00:17;18.65;;;8.30;;
72439;SDS011;60446;50.752;4.352;2024-03-23T04:02:43;24.13;;;7.70;;
72439;SDS011;60446;50.752;4.352;2024-03-23T04:05:09;14.98;;;7.30;;
72439;SDS011;60446;50.752;4.352;2024-03-23T04:07:35;19.52;;;7.80;;
72439;SDS011;60446;50.752;4.352;2024-03-23T04:10:01;16.95;;;7.20;;
72439;SDS011;60446;50.752;4.352;2024-03-23T04:12:32;16.73;;;6.80;;
72439;SDS011;60446;50.752;4.352;2024-03-23T04:15:01;15.50;;;7.43;;
72439;SDS011;60446;50.752;4.352;2024-03-23T04:17:31;17.42;;;6.25;;
72439;SDS011;60446;50.752;4.352;2024-03-23T04:19:59;19.58;;;7.45;;
72439;SDS011;60446;50.752;4.352;2024-03-23T04:22:27;20.77;;;6.95;;
72439;SDS011;60446;50.752;4.352;2024-03-23T04:24:56;16.02;;;6.28;;
72439;SDS011;60446;50.752;4.352;2024-03-23T04:27:23;20.40;;;6.70;;
72439;SDS011;60446;50.752;4.352;2024-03-23T04:29:49;17.75;;;6.20;;
72439;SDS011;60446;50.752;4.352;2024-03-23T04:32:16;16.38;;;6.00;;
72439;SDS011;60446;50.752;4.352;2024-03-23T04:34:43;14.43;;;5.38;;
72439;SDS011;60446;50.752;4.352;2024-03-23T04:37:10;21.17;;;6.20;;
72439;SDS011;60446;50.752;4.352;2024-03-23T04:39:36;13.00;;;5.07;;
72439;SDS011;60446;50.752;4.352;2024-03-23T04:42:03;20.17;;;5.63;;
72439;SDS011;60446;50.752;4.352;2024-03-23T04:44:30;13.07;;;5.57;;
72439;SDS011;60446;50.752;4.352;2024-03-23T04:46:57;19.77;;;5.97;;
72439;SDS011;60446;50.752;4.352;2024-03-23T04:49:23;14.20;;;5.65;;
72439;SDS011;60446;50.752;4.352;2024-03-23T04:51:49;11.73;;;4.93;;
72439;SDS011;60446;50.752;4.352;2024-03-23T04:54:15;14.15;;;5.10;;
72439;SDS011;60446;50.752;4.352;2024-03-23T04:56:41;12.27;;;5.65;;
72439;SDS011;60446;50.752;4.352;2024-03-23T04:59:08;13.07;;;5.47;;
72439;SDS011;60446;50.752;4.352;2024-03-23T05:01:34;11.00;;;5.15;;
72439;SDS011;60446;50.752;4.352;2024-03-23T05:04:02;16.03;;;5.63;;
72439;SDS011;60446;50.752;4.352;2024-03-23T05:06:28;15.88;;;5.10;;
72439;SDS011;60446;50.752;4.352;2024-03-23T05:08:54;11.00;;;4.40;;
72439;SDS011;60446;50.752;4.352;2024-03-23T05:11:20;14.07;;;4.22;;
72439;SDS011;60446;50.752;4.352;2024-03-23T05:13:46;12.95;;;4.97;;
72439;SDS011;60446;50.752;4.352;2024-03-23T05:16:13;12.27;;;4.30;;
72439;SDS011;60446;50.752;4.352;2024-03-23T05:18:39;15.10;;;4.38;;
72439;SDS011;60446;50.752;4.352;2024-03-23T05:21:08;11.98;;;3.72;;
72439;SDS011;60446;50.752;4.352;2024-03-23T05:23:34;9.40;;;4.10;;
72439;SDS011;60446;50.752;4.352;2024-03-23T05:26:00;8.23;;;3.75;;
72439;SDS011;60446;50.752;4.352;2024-03-23T05:28:27;9.60;;;3.33;;
72439;SDS011;60446;50.752;4.352;2024-03-23T05:30:53;11.82;;;3.90;;
72439;SDS011;60446;50.752;4.352;2024-03-23T05:33:20;12.93;;;4.32;;
72439;SDS011;60446;50.752;4.352;2024-03-23T05:35:47;14.25;;;3.97;;
72439;SDS011;60446;50.752;4.352;2024-03-23T05:38:22;12.68;;;3.90;;
72439;SDS011;60446;50.752;4.352;2024-03-23T05:40:54;10.47;;;3.03;;
72439;SDS011;60446;50.752;4.352;2024-03-23T05:43:25;7.50;;;2.65;;
72439;SDS011;60446;50.752;4.352;2024-03-23T05:45:53;9.93;;;2.63;;
72439;SDS011;60446;50.752;4.352;2024-03-23T05:48:24;15.98;;;3.13;;
72439;SDS011;60446;50.752;4.352;2024-03-23T05:50:55;12.80;;;3.83;;
72439;SDS011;60446;50.752;4.352;2024-03-23T05:53:22;7.75;;;2.80;;
72439;SDS011;60446;50.752;4.352;2024-03-23T05:55:50;8.43;;;3.08;;
72439;SDS011;60446;50.752;4.352;2024-03-23T05:58:19;11.43;;;2.60;;
72439;SDS011;60446;50.752;4.352;2024-03-23T06:00:45;7.40;;;2.25;;
72439;SDS011;60446;50.752;4.352;2024-03-23T06:03:12;7.93;;;3.58;;
72439;SDS011;60446;50.752;4.352;2024-03-23T06:05:38;5.53;;;2.37;;
72439;SDS011;60446;50.752;4.352;2024-03-23T06:08:05;11.20;;;2.95;;
72439;SDS011;60446;50.752;4.352;2024-03-23T06:10:33;6.63;;;2.75;;
72439;SDS011;60446;50.752;4.352;2024-03-23T06:12:59;11.68;;;3.08;;
72439;SDS011;60446;50.752;4.352;2024-03-23T06:15:25;7.60;;;3.05;;
72439;SDS011;60446;50.752;4.352;2024-03-23T06:17:52;10.10;;;2.53;;
72439;SDS011;60446;50.752;4.352;2024-03-23T06:20:18;8.77;;;3.28;;
72439;SDS011;60446;50.752;4.352;2024-03-23T06:22:44;9.35;;;2.83;;
72439;SDS011;60446;50.752;4.352;2024-03-23T06:25:10;8.20;;;2.40;;
72439;SDS011;60446;50.752;4.352;2024-03-23T06:27:38;8.35;;;2.90;;
72439;SDS011;60446;50.752;4.352;2024-03-23T06:30:07;12.07;;;2.43;;
72439;SDS011;60446;50.752;4.352;2024-03-23T06:32:34;10.55;;;2.50;;
72439;SDS011;60446;50.752;4.352;2024-03-23T06:35:00;8.98;;;2.85;;
72439;SDS011;60446;50.752;4.352;2024-03-23T06:37:31;8.23;;;2.97;;
72439;SDS011;60446;50.752;4.352;2024-03-23T06:39:57;10.50;;;2.40;;
72439;SDS011;60446;50.752;4.352;2024-03-23T06:42:23;12.30;;;3.03;;
72439;SDS011;60446;50.752;4.352;2024-03-23T06:44:49;7.82;;;2.40;;
72439;SDS011;60446;50.752;4.352;2024-03-23T06:47:15;5.32;;;2.17;;
72439;SDS011;60446;50.752;4.352;2024-03-23T06:49:42;10.82;;;2.50;;
72439;SDS011;60446;50.752;4.352;2024-03-23T06:52:08;8.07;;;3.17;;
72439;SDS011;60446;50.752;4.352;2024-03-23T06:54:34;11.13;;;2.50;;
72439;SDS011;60446;50.752;4.352;2024-03-23T06:57:00;7.95;;;1.98;;
72439;SDS011;60446;50.752;4.352;2024-03-23T06:59:26;5.25;;;2.33;;
72439;SDS011;60446;50.752;4.352;2024-03-23T07:01:52;11.45;;;2.30;;
72439;SDS011;60446;50.752;4.352;2024-03-23T07:04:19;9.93;;;2.88;;
72439;SDS011;60446;50.752;4.352;2024-03-23T07:06:45;10.13;;;2.10;;
72439;SDS011;60446;50.752;4.352;2024-03-23T07:09:11;6.03;;;2.33;;
72439;SDS011;60446;50.752;4.352;2024-03-23T07:11:37;5.95;;;2.63;;
72439;SDS011;60446;50.752;4.352;2024-03-23T07:14:03;7.88;;;1.80;;
72439;SDS011;60446;50.752;4.352;2024-03-23T07:16:30;6.20;;;2.70;;
72439;SDS011;60446;50.752;4.352;2024-03-23T07:18:56;6.57;;;1.97;;
72439;SDS011;60446;50.752;4.352;2024-03-23T07:21:22;7.93;;;2.30;;
72439;SDS011;60446;50.752;4.352;2024-03-23T07:23:49;8.30;;;2.53;;
72439;SDS011;60446;50.752;4.352;2024-03-23T07:26:15;7.38;;;2.28;;
72439;SDS011;60446;50.752;4.352;2024-03-23T07:28:43;10.88;;;2.72;;
72439;SDS011;60446;50.752;4.352;2024-03-23T07:31:11;8.97;;;2.30;;
72439;SDS011;60446;50.752;4.352;2024-03-23T07:33:43;8.77;;;1.83;;
72439;SDS011;60446;50.752;4.352;2024-03-23T07:36:11;6.05;;;3.10;;
72439;SDS011;60446;50.752;4.352;2024-03-23T07:38:37;9.38;;;2.70;;
72439;SDS011;60446;50.752;4.352;2024-03-23T07:41:07;8.02;;;3.25;;
72439;SDS011;60446;50.752;4.352;2024-03-23T07:43:39;9.07;;;2.63;;
72439;SDS011;60446;50.752;4.352;2024-03-23T07:46:08;6.70;;;2.58;;
72439;SDS011;60446;50.752;4.352;2024-03-23T07:48:34;10.27;;;2.50;;
72439;SDS011;60446;50.752;4.352;2024-03-23T07:51:07;12.98;;;3.60;;
72439;SDS011;60446;50.752;4.352;2024-03-23T07:53:36;10.82;;;3.42;;
72439;SDS011;60446;50.752;4.352;2024-03-23T07:58:32;7.25;;;3.42;;
72439;SDS011;60446;50.752;4.352;2024-03-23T08:01:03;6.90;;;3.00;;
72439;SDS011;60446;50.752;4.352;2024-03-23T08:03:35;7.88;;;3.10;;
72439;SDS011;60446;50.752;4.352;2024-03-23T08:06:14;7.20;;;3.47;;
72439;SDS011;60446;50.752;4.352;2024-03-23T08:08:45;6.93;;;3.23;;
72439;SDS011;60446;50.752;4.352;2024-03-23T08:11:14;4.75;;;2.17;;
72439;SDS011;60446;50.752;4.352;2024-03-23T08:13:41;8.70;;;3.20;;
72439;SDS011;60446;50.752;4.352;2024-03-23T08:16:08;11.25;;;3.00;;
72439;SDS011;60446;50.752;4.352;2024-03-23T08:18:34;10.73;;;3.42;;
72439;SDS011;60446;50.752;4.352;2024-03-23T08:21:01;13.17;;;2.97;;
72439;SDS011;60446;50.752;4.352;2024-03-23T08:23:32;10.70;;;2.63;;
72439;SDS011;60446;50.752;4.352;2024-03-23T08:26:05;9.55;;;3.00;;
72439;SDS011;60446;50.752;4.352;2024-03-23T08:28:38;9.65;;;2.47;;
72439;SDS011;60446;50.752;4.352;2024-03-23T08:31:06;9.73;;;3.95;;
72439;SDS011;60446;50.752;4.352;2024-03-23T08:33:34;8.40;;;3.03;;
72439;SDS011;60446;50.752;4.352;2024-03-23T08:36:02;6.90;;;2.42;;
72439;SDS011;60446;50.752;4.352;2024-03-23T08:38:30;10.20;;;3.75;;
72439;SDS011;60446;50.752;4.352;2024-03-23T08:40:57;12.23;;;4.07;;
72439;SDS011;60446;50.752;4.352;2024-03-23T08:43:38;8.13;;;3.08;;
72439;SDS011;60446;50.752;4.352;2024-03-23T08:46:06;6.87;;;2.67;;
72439;SDS011;60446;50.752;4.352;2024-03-23T08:51:12;12.23;;;3.22;;
72439;SDS011;60446;50.752;4.352;2024-03-23T08:53:40;6.80;;;3.33;;
72439;SDS011;60446;50.752;4.352;2024-03-23T08:56:07;12.02;;;3.58;;
72439;SDS011;60446;50.752;4.352;2024-03-23T08:58:34;13.93;;;3.40;;
72439;SDS011;60446;50.752;4.352;2024-03-23T09:01:09;6.50;;;2.88;;
72439;SDS011;60446;50.752;4.352;2024-03-23T09:03:40;8.13;;;3.30;;
72439;SDS011;60446;50.752;4.352;2024-03-23T09:06:07;11.35;;;3.72;;
72439;SDS011;60446;50.752;4.352;2024-03-23T09:08:35;9.77;;;3.42;;
72439;SDS011;60446;50.752;4.352;2024-03-23T09:11:05;11.37;;;3.47;;
72439;SDS011;60446;50.752;4.352;2024-03-23T09:13:38;6.93;;;2.97;;
72439;SDS011;60446;50.752;4.352;2024-03-23T09:16:07;10.90;;;3.90;;
72439;SDS011;60446;50.752;4.352;2024-03-23T09:18:35;7.97;;;3.55;;
72439;SDS011;60446;50.752;4.352;2024-03-23T09:21:03;7.88;;;2.88;;
72439;SDS011;60446;50.752;4.352;2024-03-23T09:23:30;8.83;;;3.40;;
72439;SDS011;60446;50.752;4.352;2024-03-23T09:25:56;11.05;;;3.40;;
72439;SDS011;60446;50.752;4.352;2024-03-23T09:28:22;8.63;;;3.67;;
72439;SDS011;60446;50.752;4.352;2024-03-23T09:30:48;9.70;;;3.70;;
72439;SDS011;60446;50.752;4.352;2024-03-23T09:33:14;8.38;;;3.53;;
72439;SDS011;60446;50.752;4.352;2024-03-23T09:35:41;8.50;;;3.40;;
72439;SDS011;60446;50.752;4.352;2024-03-23T09:38:10;9.80;;;3.10;;
72439;SDS011;60446;50.752;4.352;2024-03-23T09:40:43;8.88;;;3.42;;
72439;SDS011;60446;50.752;4.352;2024-03-23T09:43:11;7.35;;;3.28;;
72439;SDS011;60446;50.752;4.352;2024-03-23T09:45:40;6.43;;;2.70;;
72439;SDS011;60446;50.752;4.352;2024-03-23T09:48:08;7.20;;;2.53;;
72439;SDS011;60446;50.752;4.352;2024-03-23T09:50:42;7.18;;;2.55;;
72439;SDS011;60446;50.752;4.352;2024-03-23T09:53:11;8.43;;;3.35;;
72439;SDS011;60446;50.752;4.352;2024-03-23T09:55:42;7.20;;;1.98;;
72439;SDS011;60446;50.752;4.352;2024-03-23T09:58:17;7.65;;;2.40;;
72439;SDS011;60446;50.752;4.352;2024-03-23T10:00:44;5.47;;;2.60;;
72439;SDS011;60446;50.752;4.352;2024-03-23T10:03:10;5.95;;;2.90;;
72439;SDS011;60446;50.752;4.352;2024-03-23T10:05:37;7.00;;;2.63;;
72439;SDS011;60446;50.752;4.352;2024-03-23T10:10:41;7.32;;;2.30;;
72439;SDS011;60446;50.752;4.352;2024-03-23T10:13:09;8.30;;;2.87;;
72439;SDS011;60446;50.752;4.352;2024-03-23T10:15:37;5.63;;;2.40;;
72439;SDS011;60446;50.752;4.352;2024-03-23T10:18:19;7.68;;;2.75;;
72439;SDS011;60446;50.752;4.352;2024-03-23T10:20:51;5.63;;;2.53;;
72439;SDS011;60446;50.752;4.352;2024-03-23T10:23:31;5.53;;;2.78;;
72439;SDS011;60446;50.752;4.352;2024-03-23T10:28:50;6.32;;;2.50;;
72439;SDS011;60446;50.752;4.352;2024-03-23T10:31:20;8.82;;;2.47;;
72439;SDS011;60446;50.752;4.352;2024-03-23T10:33:47;6.78;;;2.30;;
72439;SDS011;60446;50.752;4.352;2024-03-23T10:36:14;4.63;;;2.40;;
72439;SDS011;60446;50.752;4.352;2024-03-23T10:38:41;6.20;;;2.40;;
72439;SDS011;60446;50.752;4.352;2024-03-23T10:41:09;7.07;;;1.90;;
72439;SDS011;60446;50.752;4.352;2024-03-23T10:43:36;7.28;;;1.75;;
72439;SDS011;60446;50.752;4.352;2024-03-23T10:46:04;7.55;;;2.67;;
72439;SDS011;60446;50.752;4.352;2024-03-23T10:48:34;6.10;;;2.50;;
72439;SDS011;60446;50.752;4.352;2024-03-23T10:51:00;3.50;;;2.07;;
72439;SDS011;60446;50.752;4.352;2024-03-23T10:53:27;5.05;;;1.63;;
72439;SDS011;60446;50.752;4.352;2024-03-23T10:55:54;4.45;;;1.95;;
72439;SDS011;60446;50.752;4.352;2024-03-23T10:58:27;5.82;;;2.03;;
72439;SDS011;60446;50.752;4.352;2024-03-23T11:01:12;9.45;;;1.98;;
72439;SDS011;60446;50.752;4.352;2024-03-23T11:03:39;5.90;;;2.10;;
72439;SDS011;60446;50.752;4.352;2024-03-23T11:06:10;8.77;;;1.58;;
72439;SDS011;60446;50.752;4.352;2024-03-23T11:09:00;6.22;;;2.17;;
72439;SDS011;60446;50.752;4.352;2024-03-23T11:11:28;6.95;;;2.08;;
72439;SDS011;60446;50.752;4.352;2024-03-23T11:13:57;5.45;;;2.40;;
72439;SDS011;60446;50.752;4.352;2024-03-23T11:16:25;6.80;;;1.83;;
72439;SDS011;60446;50.752;4.352;2024-03-23T11:19:32;9.80;;;2.38;;
72439;SDS011;60446;50.752;4.352;2024-03-23T11:27:52;6.88;;;3.20;;
72439;SDS011;60446;50.752;4.352;2024-03-23T11:30:21;4.83;;;2.63;;
72439;SDS011;60446;50.752;4.352;2024-03-23T11:32:54;4.75;;;1.50;;
72439;SDS011;60446;50.752;4.352;2024-03-23T11:35:26;4.82;;;2.75;;
72439;SDS011;60446;50.752;4.352;2024-03-23T11:38:11;5.20;;;1.98;;
72439;SDS011;60446;50.752;4.352;2024-03-23T11:40:40;3.72;;;2.20;;
72439;SDS011;60446;50.752;4.352;2024-03-23T11:43:14;7.03;;;1.73;;
72439;SDS011;60446;50.752;4.352;2024-03-23T11:45:46;4.45;;;1.75;;
72439;SDS011;60446;50.752;4.352;2024-03-23T11:48:19;4.22;;;2.05;;
72439;SDS011;60446;50.752;4.352;2024-03-23T11:50:47;3.88;;;1.77;;
72439;SDS011;60446;50.752;4.352;2024-03-23T11:55:44;5.20;;;1.20;;
72439;SDS011;60446;50.752;4.352;2024-03-23T11:58:24;4.53;;;2.00;;
72439;SDS011;60446;50.752;4.352;2024-03-23T12:03:24;5.55;;;2.00;;
72439;SDS011;60446;50.752;4.352;2024-03-23T12:05:52;5.20;;;2.30;;
72439;SDS011;60446;50.752;4.352;2024-03-23T12:08:23;4.00;;;2.57;;
72439;SDS011;60446;50.752;4.352;2024-03-23T12:13:35;4.97;;;1.77;;
72439;SDS011;60446;50.752;4.352;2024-03-23T12:16:14;3.55;;;1.60;;
72439;SDS011;60446;50.752;4.352;2024-03-23T12:18:46;6.53;;;1.90;;
72439;SDS011;60446;50.752;4.352;2024-03-23T12:21:17;3.93;;;1.63;;
72439;SDS011;60446;50.752;4.352;2024-03-23T12:23:43;5.35;;;1.98;;
72439;SDS011;60446;50.752;4.352;2024-03-23T12:26:12;5.15;;;1.95;;
72439;SDS011;60446;50.752;4.352;2024-03-23T12:28:38;7.15;;;2.28;;
72439;SDS011;60446;50.752;4.352;2024-03-23T12:31:05;4.88;;;2.22;;
72439;SDS011;60446;50.752;4.352;2024-03-23T12:33:31;5.30;;;2.30;;
72439;SDS011;60446;50.752;4.352;2024-03-23T12:35:57;4.78;;;2.30;;
72439;SDS011;60446;50.752;4.352;2024-03-23T12:38:23;5.53;;;2.30;;
72439;SDS011;60446;50.752;4.352;2024-03-23T12:40:50;5.75;;;2.10;;
72439;SDS011;60446;50.752;4.352;2024-03-23T12:43:17;3.45;;;1.20;;
72439;SDS011;60446;50.752;4.352;2024-03-23T12:45:47;4.40;;;1.90;;
72439;SDS011;60446;50.752;4.352;2024-03-23T12:48:14;5.15;;;1.70;;
72439;SDS011;60446;50.752;4.352;2024-03-23T12:50:41;6.07;;;2.20;;
72439;SDS011;60446;50.752;4.352;2024-03-23T12:53:07;4.28;;;1.70;;
72439;SDS011;60446;50.752;4.352;2024-03-23T12:55:36;9.07;;;2.42;;
72439;SDS011;60446;50.752;4.352;2024-03-23T12:58:03;7.70;;;2.30;;
72439;SDS011;60446;50.752;4.352;2024-03-23T13:00:30;10.75;;;2.17;;
72439;SDS011;60446;50.752;4.352;2024-03-23T13:02:56;7.50;;;2.28;;
72439;SDS011;60446;50.752;4.352;2024-03-23T13:05:22;4.20;;;1.60;;
72439;SDS011;60446;50.752;4.352;2024-03-23T13:07:48;4.13;;;2.00;;
72439;SDS011;60446;50.752;4.352;2024-03-23T13:10:14;3.43;;;1.83;;
72439;SDS011;60446;50.752;4.352;2024-03-23T13:12:41;4.20;;;1.38;;
72439;SDS011;60446;50.752;4.352;2024-03-23T13:15:08;3.97;;;1.73;;
72439;SDS011;60446;50.752;4.352;2024-03-23T13:17:34;5.38;;;1.52;;
72439;SDS011;60446;50.752;4.352;2024-03-23T13:20:00;10.18;;;2.33;;
72439;SDS011;60446;50.752;4.352;2024-03-23T13:22:27;7.63;;;2.57;;
72439;SDS011;60446;50.752;4.352;2024-03-23T13:24:53;6.60;;;2.47;;
72439;SDS011;60446;50.752;4.352;2024-03-23T13:27:20;7.47;;;2.92;;
72439;SDS011;60446;50.752;4.352;2024-03-23T13:29:46;11.30;;;2.90;;
72439;SDS011;60446;50.752;4.352;2024-03-23T13:32:12;5.68;;;2.50;;
72439;SDS011;60446;50.752;4.352;2024-03-23T13:34:39;4.27;;;1.80;;
72439;SDS011;60446;50.752;4.352;2024-03-23T13:37:05;5.60;;;1.60;;
72439;SDS011;60446;50.752;4.352;2024-03-23T13:39:33;9.10;;;2.50;;
72439;SDS011;60446;50.752;4.352;2024-03-23T13:41:59;4.53;;;2.00;;
72439;SDS011;60446;50.752;4.352;2024-03-23T13:44:25;5.70;;;1.95;;
72439;SDS011;60446;50.752;4.352;2024-03-23T13:46:51;4.30;;;2.27;;
72439;SDS011;60446;50.752;4.352;2024-03-23T13:49:28;5.68;;;1.42;;
72439;SDS011;60446;50.752;4.352;2024-03-23T13:51:56;4.78;;;1.42;;
72439;SDS011;60446;50.752;4.352;2024-03-23T13:54:24;3.03;;;1.33;;
72439;SDS011;60446;50.752;4.352;2024-03-23T13:56:51;4.38;;;1.92;;
72439;SDS011;60446;50.752;4.352;2024-03-23T13:59:19;3.47;;;1.63;;
72439;SDS011;60446;50.752;4.352;2024-03-23T14:01:48;3.78;;;1.88;;
72439;SDS011;60446;50.752;4.352;2024-03-23T14:04:15;3.85;;;1.55;;
72439;SDS011;60446;50.752;4.352;2024-03-23T14:06:48;5.88;;;1.45;;
72439;SDS011;60446;50.752;4.352;2024-03-23T14:09:14;3.72;;;2.13;;
72439;SDS011;60446;50.752;4.352;2024-03-23T14:11:46;4.13;;;1.83;;
72439;SDS011;60446;50.752;4.352;2024-03-23T14:14:13;4.95;;;1.90;;
72439;SDS011;60446;50.752;4.352;2024-03-23T14:16:42;6.35;;;1.67;;
72439;SDS011;60446;50.752;4.352;2024-03-23T14:19:09;3.20;;;1.85;;
72439;SDS011;60446;50.752;4.352;2024-03-23T14:21:35;3.33;;;1.95;;
72439;SDS011;60446;50.752;4.352;2024-03-23T14:24:01;3.70;;;1.90;;
72439;SDS011;60446;50.752;4.352;2024-03-23T14:26:29;3.80;;;1.83;;
72439;SDS011;60446;50.752;4.352;2024-03-23T14:28:55;5.82;;;1.77;;
72439;SDS011;60446;50.752;4.352;2024-03-23T14:31:21;6.75;;;2.15;;
72439;SDS011;60446;50.752;4.352;2024-03-23T14:33:48;4.88;;;1.80;;
72439;SDS011;60446;50.752;4.352;2024-03-23T14:36:16;3.80;;;1.90;;
72439;SDS011;60446;50.752;4.352;2024-03-23T14:38:48;6.10;;;2.33;;
72439;SDS011;60446;50.752;4.352;2024-03-23T14:41:15;3.92;;;1.75;;
72439;SDS011;60446;50.752;4.352;2024-03-23T14:43:41;4.75;;;1.83;;
72439;SDS011;60446;50.752;4.352;2024-03-23T14:46:14;7.28;;;2.22;;
72439;SDS011;60446;50.752;4.352;2024-03-23T14:48:45;5.27;;;1.50;;
72439;SDS011;60446;50.752;4.352;2024-03-23T14:51:12;4.32;;;1.65;;
72439;SDS011;60446;50.752;4.352;2024-03-23T14:53:38;7.95;;;2.17;;
72439;SDS011;60446;50.752;4.352;2024-03-23T14:56:06;6.60;;;2.00;;
72439;SDS011;60446;50.752;4.352;2024-03-23T14:58:35;4.68;;;2.20;;
72439;SDS011;60446;50.752;4.352;2024-03-23T15:03:38;5.53;;;1.77;;
72439;SDS011;60446;50.752;4.352;2024-03-23T15:06:06;4.30;;;2.15;;
72439;SDS011;60446;50.752;4.352;2024-03-23T15:08:34;3.72;;;2.13;;
72439;SDS011;60446;50.752;4.352;2024-03-23T15:11:02;5.97;;;2.38;;
72439;SDS011;60446;50.752;4.352;2024-03-23T15:13:34;5.97;;;2.03;;
72439;SDS011;60446;50.752;4.352;2024-03-23T15:16:02;5.90;;;2.00;;
72439;SDS011;60446;50.752;4.352;2024-03-23T15:18:29;7.45;;;2.47;;
72439;SDS011;60446;50.752;4.352;2024-03-23T15:20:57;4.97;;;2.45;;
72439;SDS011;60446;50.752;4.352;2024-03-23T15:23:28;5.40;;;2.55;;
72439;SDS011;60446;50.752;4.352;2024-03-23T15:25:55;6.00;;;2.73;;
72439;SDS011;60446;50.752;4.352;2024-03-23T15:28:28;3.90;;;2.22;;
72439;SDS011;60446;50.752;4.352;2024-03-23T15:31:14;7.65;;;2.50;;
72439;SDS011;60446;50.752;4.352;2024-03-23T15:33:40;4.15;;;1.80;;
72439;SDS011;60446;50.752;4.352;2024-03-23T15:36:06;5.68;;;2.58;;
72439;SDS011;60446;50.752;4.352;2024-03-23T15:38:32;7.67;;;2.37;;
72439;SDS011;60446;50.752;4.352;2024-03-23T15:40:59;6.20;;;2.78;;
72439;SDS011;60446;50.752;4.352;2024-03-23T15:43:25;5.22;;;2.63;;
72439;SDS011;60446;50.752;4.352;2024-03-23T15:45:58;4.93;;;2.10;;
72439;SDS011;60446;50.752;4.352;2024-03-23T15:48:30;5.00;;;2.97;;
72439;SDS011;60446;50.752;4.352;2024-03-23T15:50:58;6.17;;;2.23;;
72439;SDS011;60446;50.752;4.352;2024-03-23T15:53:30;7.10;;;2.33;;
72439;SDS011;60446;50.752;4.352;2024-03-23T15:55:58;5.53;;;2.40;;
72439;SDS011;60446;50.752;4.352;2024-03-23T15:58:29;6.55;;;2.30;;
72439;SDS011;60446;50.752;4.352;2024-03-23T16:00:57;6.50;;;2.85;;
72439;SDS011;60446;50.752;4.352;2024-03-23T16:03:29;4.40;;;2.60;;
72439;SDS011;60446;50.752;4.352;2024-03-23T16:05:58;5.43;;;2.60;;
72439;SDS011;60446;50.752;4.352;2024-03-23T16:08:25;7.10;;;2.35;;